Clintonville, WI

6:41 PM CST on January 18, 2018 (GMT -0600)
Clintonville Municipal

Weather History for KCLI - February, 2013

Change the Weather History Date:

Friday, February 15, 2013

  Actual Average Record
Temperature  
Mean Temperature 16 °F -  
Max Temperature 24 °F 29 °F 45 °F (1954)
Min Temperature 5 °F 10 °F -11 °F (1963)
Degree Days  
Heating Degree Days 49    
Moisture  
Dew Point 7 °F    
Average Humidity 67    
Maximum Humidity 86    
Minimum Humidity 50    
Precipitation  
Precipitation 0.00 in - - ()
Sea Level Pressure  
Sea Level Pressure 30.11 in    
Wind  
Wind Speed 7 mph (WNW)    
Max Wind Speed 13 mph    
Max Gust Speed 18 mph    
Visibility 10 miles    
Events      
Averages and records for this station are not official NWS values.
T = Trace of Precipitation, MM = Missing Value Source: NWS Daily Summary

Daily Weather History Graph

Daily Weather History Graph

Search for Another Location

Airport or City:

Trip Planner

Search our weather history database for the weather conditions in past years. The results will help you decide how hot, cold, wet, or windy it might be!

Date:

Astronomy

Feb. 15, 2013 Rise Set
Actual Time 6:54 AM CST 5:24 PM CST
Civil Twilight 6:24 AM CST 5:53 PM CST
Nautical Twilight 5:50 AM CST 6:28 PM CST
Astronomical Twilight 5:16 AM CST 7:01 PM CST
Moon 9:14 AM CST (2/15) 11:42 PM CST (2/15)
Length of Visible Light 11h 29m
Length of Day
10h 29m
Waxing Crescent, 30% of the Moon is Illuminated
Feb 15
Waxing Crescent
Feb 17
First Quarter
Feb 25
Full
Mar 4
Last Quarter
Mar 11
New

Hourly Weather History & Observations

Time (CST) Temp. Windchill Dew Point Humidity Pressure Visibility Wind Dir Wind Speed Gust Speed Precip Events Conditions
12:15 AM 19.4 °F 11.5 °F 10.4 °F 68% 30.01 in 10.0 mi NW 5.8 mph - N/A   Scattered Clouds
12:35 AM 19.4 °F 11.5 °F 10.4 °F 68% 30.02 in 10.0 mi WNW 5.8 mph - N/A   Scattered Clouds
12:55 AM 17.6 °F 8.2 °F 10.4 °F 73% 30.02 in 10.0 mi WNW 6.9 mph - N/A   Mostly Cloudy
1:15 AM 17.6 °F 10.7 °F 10.4 °F 73% 30.02 in 10.0 mi WNW 4.6 mph - N/A   Scattered Clouds
1:35 AM 15.8 °F 6.1 °F 10.4 °F 79% 30.03 in 10.0 mi WNW 6.9 mph - N/A   Clear
1:55 AM 15.8 °F 6.1 °F 10.4 °F 79% 30.03 in 10.0 mi WNW 6.9 mph - N/A   Clear
2:15 AM 14.0 °F 3.9 °F 8.6 °F 79% 30.04 in 10.0 mi WNW 6.9 mph - N/A   Clear
2:35 AM 14.0 °F 2.9 °F 10.4 °F 86% 30.04 in 10.0 mi NW 8.1 mph - N/A   Clear
2:55 AM 14.0 °F 3.9 °F 8.6 °F 79% 30.05 in 10.0 mi WNW 6.9 mph - N/A   Clear
3:15 AM 12.2 °F 4.3 °F 8.6 °F 85% 30.05 in 10.0 mi West 4.6 mph - N/A   Clear
3:35 AM 12.2 °F 2.9 °F 8.6 °F 85% 30.05 in 10.0 mi West 5.8 mph - N/A   Clear
3:55 AM 12.2 °F 1.7 °F 8.6 °F 85% 30.06 in 10.0 mi West 6.9 mph - N/A   Clear
4:15 AM 12.2 °F 1.7 °F 8.6 °F 85% 30.06 in 10.0 mi West 6.9 mph - N/A   Clear
4:35 AM 12.2 °F 1.7 °F 6.8 °F 79% 30.07 in 10.0 mi WNW 6.9 mph - N/A   Clear
4:55 AM 12.2 °F 1.7 °F 8.6 °F 85% 30.08 in 10.0 mi WNW 6.9 mph - N/A   Clear
5:15 AM 12.2 °F 4.3 °F 8.6 °F 85% 30.08 in 10.0 mi WNW 4.6 mph - N/A   Clear
5:35 AM 12.2 °F 2.9 °F 6.8 °F 79% 30.09 in 10.0 mi WNW 5.8 mph - N/A   Clear
6:15 AM 8.6 °F - 5.0 °F 85% 30.09 in 10.0 mi Calm Calm - N/A   Clear
6:35 AM 8.6 °F 0.1 °F 5.0 °F 85% 30.10 in 10.0 mi West 4.6 mph - N/A   Clear
6:55 AM 8.6 °F 2.0 °F 5.0 °F 85% 30.11 in 10.0 mi WNW 3.5 mph - N/A   Clear
7:15 AM 8.6 °F 0.1 °F 5.0 °F 85% 30.11 in 10.0 mi West 4.6 mph - N/A   Clear
7:35 AM 10.4 °F 4.0 °F 5.0 °F 79% 30.12 in 10.0 mi WNW 3.5 mph - N/A   Mostly Cloudy
7:55 AM 12.2 °F 6.1 °F 6.8 °F 79% 30.12 in 10.0 mi West 3.5 mph - N/A   Overcast
8:15 AM 12.2 °F 6.1 °F 6.8 °F 79% 30.13 in 10.0 mi WNW 3.5 mph - N/A   Overcast
8:35 AM 14.0 °F 6.5 °F 8.6 °F 79% 30.13 in 10.0 mi West 4.6 mph - N/A   Overcast
8:55 AM 14.0 °F 2.9 °F 8.6 °F 79% 30.13 in 10.0 mi WNW 8.1 mph - N/A   Overcast
9:15 AM 15.8 °F 4.2 °F 8.6 °F 73% 30.14 in 10.0 mi WNW 9.2 mph - N/A   Overcast
9:35 AM 17.6 °F 8.2 °F 10.4 °F 73% 30.14 in 10.0 mi WNW 6.9 mph - N/A   Overcast
9:55 AM 17.6 °F 8.2 °F 10.4 °F 73% 30.14 in 10.0 mi West 6.9 mph - N/A   Overcast
10:15 AM 17.6 °F 8.2 °F 10.4 °F 73% 30.14 in 10.0 mi West 6.9 mph - N/A   Scattered Clouds
10:35 AM 19.4 °F 10.4 °F 10.4 °F 68% 30.13 in 10.0 mi West 6.9 mph - N/A   Clear
10:55 AM 19.4 °F 11.5 °F 10.4 °F 68% 30.13 in 10.0 mi WSW 5.8 mph - N/A   Clear
11:15 AM 19.4 °F 8.6 °F 10.4 °F 68% 30.12 in 10.0 mi West 9.2 mph - N/A   Mostly Cloudy
11:55 AM 23.0 °F 13.1 °F 10.4 °F 59% 30.11 in 10.0 mi West 9.2 mph - N/A   Scattered Clouds
12:15 PM 23.0 °F 11.7 °F 8.6 °F 54% 30.11 in 10.0 mi WNW 11.5 mph - N/A   Scattered Clouds
12:35 PM 23.0 °F 12.4 °F 8.6 °F 54% 30.10 in 10.0 mi NW 10.4 mph - N/A   Clear
12:55 PM 23.0 °F 13.9 °F 8.6 °F 54% 30.10 in 10.0 mi WNW 8.1 mph 16.1 mph N/A   Clear
1:15 PM 23.0 °F 11.7 °F 8.6 °F 54% 30.09 in 10.0 mi West 11.5 mph 16.1 mph N/A   Scattered Clouds
1:35 PM 24.8 °F 14.0 °F 8.6 °F 50% 30.09 in 10.0 mi NW 11.5 mph - N/A   Scattered Clouds
1:55 PM 23.0 °F 12.4 °F 6.8 °F 50% 30.09 in 10.0 mi WNW 10.4 mph - N/A   Scattered Clouds
2:15 PM 24.8 °F 15.3 °F 8.6 °F 50% 30.09 in 10.0 mi NW 9.2 mph 17.3 mph N/A   Mostly Cloudy
2:35 PM 24.8 °F 15.3 °F 8.6 °F 50% 30.09 in 10.0 mi NW 9.2 mph - N/A   Mostly Cloudy
2:55 PM 24.8 °F 15.3 °F 8.6 °F 50% 30.09 in 10.0 mi NW 9.2 mph - N/A   Mostly Cloudy
3:15 PM 23.0 °F 11.7 °F 8.6 °F 54% 30.09 in 10.0 mi NW 11.5 mph - N/A   Mostly Cloudy
3:35 PM 23.0 °F 13.1 °F 8.6 °F 54% 30.10 in 10.0 mi West 9.2 mph - N/A   Mostly Cloudy
3:55 PM 23.0 °F 11.1 °F 8.6 °F 54% 30.10 in 10.0 mi WNW 12.7 mph 16.1 mph N/A   Overcast
4:15 PM 23.0 °F 11.7 °F 8.6 °F 54% 30.11 in 10.0 mi WNW 11.5 mph - N/A   Overcast
4:35 PM 21.2 °F 8.9 °F 8.6 °F 58% 30.11 in 10.0 mi NW 12.7 mph 18.4 mph N/A   Overcast
4:55 PM 21.2 °F 8.9 °F 8.6 °F 58% 30.12 in 10.0 mi NW 12.7 mph - N/A   Overcast
5:15 PM 21.2 °F 9.5 °F 8.6 °F 58% 30.13 in 10.0 mi NW 11.5 mph 16.1 mph N/A   Overcast
5:35 PM 21.2 °F 10.1 °F 8.6 °F 58% 30.13 in 10.0 mi NW 10.4 mph - N/A   Overcast
5:55 PM 21.2 °F 10.1 °F 6.8 °F 54% 30.13 in 10.0 mi NW 10.4 mph - N/A   Overcast
6:15 PM 21.2 °F 10.1 °F 6.8 °F 54% 30.14 in 10.0 mi NW 10.4 mph - N/A   Overcast
6:35 PM 19.4 °F 10.4 °F 8.6 °F 63% 30.14 in 10.0 mi NW 6.9 mph - N/A   Overcast
6:55 PM 19.4 °F 9.5 °F 8.6 °F 63% 30.14 in 10.0 mi NW 8.1 mph - N/A   Overcast
7:15 PM 19.4 °F 6.6 °F 6.8 °F 58% 30.14 in 10.0 mi NNW 12.7 mph 17.3 mph N/A   Overcast
7:35 PM 19.4 °F 10.4 °F 5.0 °F 54% 30.15 in 10.0 mi North 6.9 mph - N/A   Overcast
7:55 PM 17.6 °F 5.7 °F 5.0 °F 58% 30.16 in 10.0 mi North 10.4 mph - N/A   Overcast
8:15 PM 17.6 °F 7.3 °F 5.0 °F 58% 30.16 in 10.0 mi North 8.1 mph - N/A   Overcast
8:35 PM 17.6 °F 9.3 °F 3.2 °F 53% 30.16 in 10.0 mi North 5.8 mph - N/A   Overcast
8:55 PM 17.6 °F 8.2 °F 3.2 °F 53% 30.16 in 10.0 mi North 6.9 mph - N/A   Overcast
9:15 PM 15.8 °F 5.1 °F 5.0 °F 62% 30.17 in 10.0 mi North 8.1 mph - N/A   Overcast
9:35 PM 14.0 °F 5.1 °F 5.0 °F 67% 30.17 in 10.0 mi North 5.8 mph - N/A   Overcast
9:55 PM 14.0 °F 5.1 °F 3.2 °F 62% 30.16 in 10.0 mi North 5.8 mph - N/A   Overcast
10:15 PM 14.0 °F 3.9 °F 1.4 °F 57% 30.16 in 10.0 mi NNW 6.9 mph - N/A   Overcast
10:35 PM 12.2 °F 6.1 °F 1.4 °F 62% 30.16 in 10.0 mi NNW 3.5 mph - N/A   Scattered Clouds
10:55 PM 10.4 °F 4.0 °F -0.4 °F 62% 30.16 in 10.0 mi NW 3.5 mph - N/A   Clear
11:15 PM 10.4 °F 4.0 °F -0.4 °F 62% 30.16 in 10.0 mi WNW 3.5 mph - N/A   Clear
11:35 PM 8.6 °F 0.1 °F -0.4 °F 67% 30.16 in 10.0 mi West 4.6 mph - N/A   Clear
11:55 PM 5.0 °F -2.1 °F -0.4 °F 78% 30.16 in 10.0 mi West 3.5 mph - N/A   Clear